Current Weather

Frederick Muni

Frederick, Maryland (KFDK)

Report from: Tuesday, February 27, 2024 4:50 AM EST
Current time: Tuesday, February 27, 2024 5:06 AM EST

Nearby weather – Weather history – Daily summaries
Weather forecast

Temperature2.0°C (35.6°F)
Dew point2.0°C (35.6°F)
Winds Calm
Visibility10 mi. (16.1 km)
Clouds Sky clear
Altimeter29.95 in.Hg (1014 mB)
Relative humidity100 %
Density altitude-1,510 ft. (-460 m)
Remarks Fully automated report
Automated weather observing station with precipitation discriminator
Flight conditions Visual Meteorological Conditions
Raw dataKFDK 270950Z AUTO 00000KT 10SM CLR 02/02 A2995 RMK AO2
An error has occurred. This application may no longer respond until reloaded. Reload 🗙